Time;durP1;ratioP1;P1;durP2;ratioP2;P2;SDS_P1;SDS_P2;PMS_P1;PMS_P2;Temp;Humidity;BMP_temperature;BMP_pressure;BME280_temperature;BME280_humidity;BME280_pressure;Samples;Min_cycle;Max_cycle;Signal;HPM_P1;HPM_P2
2021/05/12 00:00:07;;;;;;;2.70;2.50;;;;;;;13.60;100.00;95837.94;5062575;28;20528;-67
2021/05/12 00:02:32;;;;;;;3.17;2.97;;;;;;;13.59;100.00;95838.19;5068793;28;20804;-67
2021/05/12 00:04:58;;;;;;;4.50;3.03;;;;;;;13.52;100.00;95837.59;5053151;28;20402;-64
2021/05/12 00:07:23;;;;;;;2.50;2.40;;;;;;;13.23;100.00;95837.19;5065254;28;20206;-65
2021/05/12 00:09:48;;;;;;;3.10;2.90;;;;;;;13.08;100.00;95835.25;5073247;28;20270;-67
2021/05/12 00:12:14;;;;;;;2.33;2.13;;;;;;;12.95;100.00;95837.50;5064604;28;20733;-67
2021/05/12 00:14:40;;;;;;;2.43;2.23;;;;;;;13.09;100.00;95836.84;5068208;28;20642;-67
2021/05/12 00:17:09;;;;;;;2.80;2.60;;;;;;;12.50;100.00;95842.41;5063891;28;20171;-65
2021/05/12 00:19:36;;;;;;;2.60;2.50;;;;;;;12.85;100.00;95838.22;5073121;28;20431;-67
2021/05/12 00:24:34;;;;;;;3.00;2.80;;;;;;;12.78;100.00;95850.81;5053241;28;20409;-65
2021/05/12 00:26:59;;;;;;;3.07;2.87;;;;;;;12.71;100.00;95846.78;5052627;28;20410;-66
2021/05/12 00:29:25;;;;;;;2.90;2.70;;;;;;;12.65;100.00;95858.34;5052736;28;20494;-64
2021/05/12 00:31:50;;;;;;;2.83;2.63;;;;;;;12.68;100.00;95852.59;5070558;28;20653;-64
2021/05/12 00:34:15;;;;;;;3.07;2.87;;;;;;;12.94;100.00;95857.00;5073281;28;20167;-64
2021/05/12 00:36:41;;;;;;;3.20;2.77;;;;;;;12.46;100.00;95854.50;5070566;28;20544;-64
2021/05/12 00:39:08;;;;;;;4.30;2.47;;;;;;;12.63;100.00;95855.19;5062607;28;20566;-64
2021/05/12 00:41:37;;;;;;;2.60;2.20;;;;;;;12.46;100.00;95857.13;5054688;28;20255;-64
2021/05/12 00:44:14;;;;;;;2.07;1.97;;;;;;;12.72;100.00;95856.31;5073225;28;20499;-64
2021/05/12 00:46:46;;;;;;;2.40;2.20;;;;;;;12.61;100.00;95857.28;5065196;28;20878;-64
2021/05/12 00:49:12;;;;;;;1.90;1.80;;;;;;;12.74;100.00;95859.47;5061285;28;20533;-67
2021/05/12 00:51:38;;;;;;;3.03;1.70;;;;;;;12.57;100.00;95850.91;5056491;28;20469;-65
2021/05/12 00:54:06;;;;;;;6.60;2.20;;;;;;;12.38;100.00;95866.28;5063112;28;20655;-68
2021/05/12 00:56:33;;;;;;;2.10;2.00;;;;;;;12.10;100.00;95871.78;5066528;28;20516;-67
2021/05/12 00:58:59;;;;;;;2.20;1.63;;;;;;;12.18;100.00;95866.84;5072417;28;20954;-64
2021/05/12 01:01:24;;;;;;;2.50;2.30;;;;;;;12.28;100.00;95868.81;5072021;28;20527;-67
2021/05/12 01:03:49;;;;;;;3.40;1.80;;;;;;;11.91;100.00;95863.41;5060227;28;20653;-66
2021/05/12 01:06:41;;;;;;;1.97;1.63;;;;;;;12.00;100.00;95861.91;5057384;28;20183;-67
2021/05/12 01:09:09;;;;;;;2.27;2.03;;;;;;;12.08;100.00;95865.97;5065118;28;20563;-67
2021/05/12 01:11:35;;;;;;;2.20;1.53;;;;;;;12.16;100.00;95873.41;5069238;28;20422;-64
2021/05/12 01:14:02;;;;;;;1.20;1.10;;;;;;;11.87;100.00;95872.00;5056247;28;20438;-67
2021/05/12 01:16:28;;;;;;;2.07;1.60;;;;;;;11.80;100.00;95877.47;5058245;28;20422;-65
2021/05/12 01:18:53;;;;;;;3.20;1.47;;;;;;;11.92;100.00;95875.50;5066771;28;20444;-66
2021/05/12 01:21:19;;;;;;;1.10;1.10;;;;;;;11.85;100.00;95880.16;5065789;28;20492;-67
2021/05/12 01:23:47;;;;;;;1.53;1.43;;;;;;;11.89;100.00;95880.47;5075381;28;20182;-64
2021/05/12 01:26:16;;;;;;;4.27;1.30;;;;;;;11.75;100.00;95887.16;5075676;28;20207;-67
2021/05/12 01:28:45;;;;;;;1.83;1.10;;;;;;;11.96;100.00;95886.34;5075029;28;20432;-65
2021/05/12 01:31:35;;;;;;;2.83;1.30;;;;;;;12.04;100.00;95880.66;5075370;28;20421;-64
2021/05/12 01:34:03;;;;;;;1.13;0.90;;;;;;;11.87;100.00;95883.34;5068629;28;20432;-64
2021/05/12 01:36:30;;;;;;;1.40;1.30;;;;;;;11.94;100.00;95883.19;5057782;28;20430;-67
2021/05/12 01:38:56;;;;;;;1.43;1.10;;;;;;;11.91;100.00;95883.66;5069364;28;20455;-64
2021/05/12 01:41:24;;;;;;;1.60;1.43;;;;;;;12.03;100.00;95877.22;5075803;28;20414;-64
2021/05/12 01:43:50;;;;;;;1.97;1.30;;;;;;;12.08;100.00;95882.53;5076033;28;20170;-65
2021/05/12 01:46:17;;;;;;;1.43;1.20;;;;;;;11.84;100.00;95890.94;5075212;28;20424;-67
2021/05/12 01:48:43;;;;;;;1.40;1.30;;;;;;;11.86;100.00;95887.03;5075188;28;20474;-66
2021/05/12 01:51:10;;;;;;;1.60;1.50;;;;;;;11.84;100.00;95886.47;5056747;28;20503;-64
2021/05/12 01:53:36;;;;;;;2.70;1.80;;;;;;;11.86;100.00;95881.78;5066993;28;20986;-64
2021/05/12 01:56:02;;;;;;;2.23;1.70;;;;;;;11.98;100.00;95881.63;5066281;28;20418;-66
2021/05/12 01:58:28;;;;;;;1.73;1.50;;;;;;;12.02;100.00;95890.63;5054881;28;20179;-66
2021/05/12 02:00:55;;;;;;;1.80;1.70;;;;;;;11.99;100.00;95884.00;5055054;28;20780;-64
2021/05/12 02:03:21;;;;;;;1.77;1.50;;;;;;;12.01;100.00;95889.06;5071460;28;20171;-63
2021/05/12 02:05:48;;;;;;;2.07;1.87;;;;;;;12.25;100.00;95890.34;5063141;28;20453;-64
2021/05/12 02:08:22;;;;;;;2.70;1.93;;;;;;;11.90;100.00;95877.59;5054975;28;20468;-67
2021/05/12 02:10:51;;;;;;;1.90;1.80;;;;;;;11.65;100.00;95885.16;5055215;28;20536;-65
2021/05/12 02:13:17;;;;;;;1.90;1.80;;;;;;;11.83;100.00;95884.09;5055158;28;20811;-67
2021/05/12 02:15:43;;;;;;;2.57;2.37;;;;;;;11.84;100.00;95875.94;5068275;28;20425;-67
2021/05/12 02:18:09;;;;;;;3.00;1.87;;;;;;;11.87;100.00;95875.44;5073083;28;20529;-67
2021/05/12 02:20:36;;;;;;;2.60;2.40;;;;;;;11.64;100.00;95869.59;5063280;28;20503;-67
2021/05/12 02:23:06;;;;;;;2.87;2.57;;;;;;;11.56;100.00;95870.03;5055064;28;20475;-66
2021/05/12 02:25:32;;;;;;;3.50;2.30;;;;;;;11.54;100.00;95877.38;5062365;28;20422;-64
2021/05/12 02:27:58;;;;;;;3.47;2.47;;;;;;;11.52;100.00;95874.19;5073740;28;20439;-67
2021/05/12 02:30:23;;;;;;;3.77;2.37;;;;;;;11.37;100.00;95870.31;5074592;28;20907;-67
2021/05/12 02:32:50;;;;;;;3.97;2.30;;;;;;;11.52;100.00;95875.00;5066157;28;20546;-67
2021/05/12 02:35:18;;;;;;;2.63;2.30;;;;;;;11.60;100.00;95871.13;5069618;28;20634;-64
2021/05/12 02:37:43;;;;;;;3.33;3.03;;;;;;;11.73;100.00;95865.53;5073866;28;20432;-67
2021/05/12 02:40:11;;;;;;;2.10;2.00;;;;;;;11.73;100.00;95865.53;5071986;28;20441;-67
2021/05/12 02:42:37;;;;;;;3.47;2.50;;;;;;;11.75;100.00;95869.53;5074512;28;20175;-67
2021/05/12 02:45:04;;;;;;;5.00;2.70;;;;;;;11.97;100.00;95872.16;5073713;28;20448;-64
2021/05/12 02:47:29;;;;;;;4.67;2.97;;;;;;;11.89;100.00;95869.94;5063996;28;20653;-67
2021/05/12 02:49:55;;;;;;;2.50;2.37;;;;;;;11.87;100.00;95872.00;5055611;28;20482;-67
2021/05/12 02:52:20;;;;;;;2.57;2.27;;;;;;;11.82;100.00;95866.69;5064116;28;20233;-66
2021/05/12 02:54:46;;;;;;;3.40;3.10;;;;;;;11.70;100.00;95876.56;5064630;28;20174;-64
2021/05/12 02:57:11;;;;;;;3.83;2.70;;;;;;;11.84;100.00;95870.69;5069325;28;20177;-66
2021/05/12 02:59:37;;;;;;;3.03;2.70;;;;;;;11.95;100.00;95866.34;5074094;28;20197;-64
2021/05/12 03:02:03;;;;;;;3.37;3.03;;;;;;;11.74;100.00;95870.56;5058572;28;20176;-67
2021/05/12 03:04:28;;;;;;;4.53;2.87;;;;;;;11.68;100.00;95876.00;5054261;28;20199;-67
2021/05/12 03:06:56;;;;;;;6.17;3.80;;;;;;;11.70;100.00;95877.38;5053616;28;20167;-64
2021/05/12 03:09:21;;;;;;;5.33;3.40;;;;;;;11.96;100.00;95876.63;5053716;28;20202;-67
2021/05/12 03:11:47;;;;;;;4.00;3.50;;;;;;;11.87;100.00;95875.44;5064589;28;20461;-66
2021/05/12 03:14:12;;;;;;;5.20;3.27;;;;;;;11.99;100.00;95881.38;5055131;28;20642;-66
2021/05/12 03:16:37;;;;;;;4.47;3.77;;;;;;;11.91;100.00;95881.03;5065094;28;20183;-64
2021/05/12 03:19:05;;;;;;;7.63;3.40;;;;;;;11.91;100.00;95881.81;5071782;28;20653;-67
2021/05/12 03:21:33;;;;;;;5.33;4.33;;;;;;;11.71;100.00;95881.56;5072686;28;20178;-65
2021/05/12 03:23:59;;;;;;;6.33;4.73;;;;;;;11.66;100.00;95880.72;5073702;28;20409;-65
2021/05/12 03:26:24;;;;;;;7.97;3.87;;;;;;;11.84;100.00;95881.22;5057450;28;20745;-67
2021/05/12 03:28:50;;;;;;;6.20;4.70;;;;;;;11.47;100.00;95885.44;5053293;28;20596;-64
2021/05/12 03:31:15;;;;;;;5.50;4.67;;;;;;;11.43;100.00;95887.75;5053711;28;20174;-67
2021/05/12 03:33:41;;;;;;;5.73;5.23;;;;;;;11.60;100.00;95886.91;5053635;28;20206;-67
2021/05/12 03:36:08;;;;;;;8.30;5.57;;;;;;;11.76;100.00;95886.91;5053656;28;20175;-65
2021/05/12 03:38:36;;;;;;;6.43;5.77;;;;;;;11.46;100.00;95883.03;5053084;28;20421;-67
2021/05/12 03:41:02;;;;;;;5.67;4.90;;;;;;;11.51;100.00;95881.28;5067070;28;20783;-64
2021/05/12 03:43:28;;;;;;;6.30;5.00;;;;;;;11.68;100.00;95882.06;5073574;28;20397;-64
2021/05/12 03:45:53;;;;;;;9.70;5.80;;;;;;;11.59;100.00;95880.06;5073551;28;20408;-67
2021/05/12 03:48:19;;;;;;;6.97;6.30;;;;;;;11.14;100.00;95878.38;5073056;28;20177;-64
2021/05/12 03:50:44;;;;;;;7.37;6.67;;;;;;;11.27;100.00;95877.25;5054053;28;20623;-66
2021/05/12 03:53:10;;;;;;;7.80;6.90;;;;;;;11.74;100.00;95881.06;5054218;28;20599;-64
2021/05/12 03:55:37;;;;;;;7.40;5.53;;;;;;;11.58;100.00;95879.25;5060363;28;20257;-66
2021/05/12 03:58:03;;;;;;;10.97;7.17;;;;;;;11.56;100.00;95876.06;5052881;28;20167;-65
2021/05/12 04:00:28;;;;;;;9.60;6.83;;;;;;;11.58;100.00;95879.25;5053163;28;20430;-65
2021/05/12 04:02:54;;;;;;;9.57;7.20;;;;;;;11.68;100.00;95883.91;5053155;28;20978;-66
2021/05/12 04:05:20;;;;;;;7.33;6.73;;;;;;;11.78;100.00;95887.44;5053194;28;20167;-67
2021/05/12 04:07:45;;;;;;;8.60;6.73;;;;;;;11.74;100.00;95890.84;5052919;28;20707;-65
2021/05/12 04:10:11;;;;;;;12.40;7.90;;;;;;;11.44;100.00;95885.91;5055911;28;20202;-67
2021/05/12 04:12:37;;;;;;;10.67;6.90;;;;;;;11.68;100.00;95873.38;5073311;28;20215;-65
2021/05/12 04:15:04;;;;;;;9.60;6.70;;;;;;;11.46;100.00;95872.53;5058748;28;20418;-65
2021/05/12 04:17:30;;;;;;;9.47;7.10;;;;;;;11.78;100.00;95876.91;5052658;28;20957;-65
2021/05/12 04:19:56;;;;;;;9.33;7.10;;;;;;;11.82;100.00;95885.94;5052986;28;20430;-67
2021/05/12 04:22:21;;;;;;;10.43;6.70;;;;;;;11.94;100.00;95878.69;5064830;28;20852;-65
2021/05/12 04:24:46;;;;;;;8.10;7.20;;;;;;;11.47;100.00;95880.16;5073238;28;20593;-65
2021/05/12 04:27:12;;;;;;;9.03;7.00;;;;;;;11.34;100.00;95883.16;5072212;28;20196;-65
2021/05/12 04:29:38;;;;;;;7.57;6.87;;;;;;;11.42;100.00;95880.09;5060234;28;20674;-67
2021/05/12 04:32:05;;;;;;;10.57;7.53;;;;;;;11.58;100.00;95884.53;5053113;28;20200;-67
2021/05/12 04:34:30;;;;;;;9.60;7.10;;;;;;;11.42;100.00;95890.63;5052982;28;20406;-66
2021/05/12 04:36:56;;;;;;;8.87;6.13;;;;;;;11.52;100.00;95892.59;5063362;28;20428;-67
2021/05/12 04:39:21;;;;;;;7.63;6.83;;;;;;;11.72;100.00;95895.53;5074459;28;20195;-67
2021/05/12 04:41:47;;;;;;;8.03;7.23;;;;;;;11.36;100.00;95897.66;5076873;28;20174;-67
2021/05/12 04:44:12;;;;;;;8.97;6.43;;;;;;;11.41;100.00;95897.72;5065354;28;20266;-67
2021/05/12 04:46:39;;;;;;;13.97;7.10;;;;;;;11.89;100.00;95902.34;5056944;28;20623;-67
2021/05/12 04:49:05;;;;;;;8.17;6.00;;;;;;;11.93;100.00;95910.53;5056400;28;20215;-67
2021/05/12 04:51:33;;;;;;;7.07;6.13;;;;;;;12.15;100.00;95903.44;5076400;28;20968;-67
2021/05/12 04:53:58;;;;;;;7.57;6.97;;;;;;;12.29;100.00;95899.38;5076589;28;20262;-66
2021/05/12 04:56:24;;;;;;;7.07;6.40;;;;;;;12.17;100.00;95901.34;5076706;28;20500;-65
2021/05/12 04:58:49;;;;;;;7.93;7.23;;;;;;;11.84;100.00;95909.38;5066815;28;20202;-66
2021/05/12 05:01:14;;;;;;;6.87;6.27;;;;;;;11.51;100.00;95910.22;5056383;28;20718;-67
2021/05/12 05:03:42;;;;;;;7.40;6.70;;;;;;;11.71;100.00;95912.34;5067183;28;20170;-67
2021/05/12 05:06:08;;;;;;;6.87;6.23;;;;;;;11.54;100.00;95917.63;5076302;28;20167;-66
2021/05/12 05:08:33;;;;;;;8.43;6.87;;;;;;;11.86;100.00;95923.09;5075883;28;20411;-67
2021/05/12 05:10:58;;;;;;;7.00;6.13;;;;;;;12.22;98.28;95922.47;5076406;28;20175;-67
2021/05/12 05:13:24;;;;;;;7.60;6.30;;;;;;;12.06;98.21;95920.72;5076178;28;20343;-65
2021/05/12 05:15:49;;;;;;;6.40;5.70;;;;;;;11.75;99.60;95924.78;5076291;28;20167;-67
2021/05/12 05:18:15;;;;;;;7.93;5.67;;;;;;;11.63;99.93;95929.31;5065449;28;20630;-66
2021/05/12 05:20:41;;;;;;;7.17;6.53;;;;;;;11.62;100.00;95937.47;5059928;28;20686;-65
2021/05/12 05:23:06;;;;;;;6.37;5.47;;;;;;;11.92;100.00;95927.38;5074707;28;20174;-65
2021/05/12 05:25:32;;;;;;;6.83;5.37;;;;;;;11.97;99.12;95933.50;5074500;28;20205;-66
2021/05/12 05:27:58;;;;;;;8.63;5.80;;;;;;;12.23;97.71;95935.38;5075506;28;20170;-65
2021/05/12 05:30:23;;;;;;;9.57;6.33;;;;;;;12.05;98.07;95937.53;5075929;28;20587;-65
2021/05/12 05:32:48;;;;;;;7.17;6.20;;;;;;;11.57;98.51;95938.19;5069970;28;20287;-66
2021/05/12 05:35:14;;;;;;;7.00;6.10;;;;;;;11.53;100.00;95939.72;5075511;28;20193;-65
2021/05/12 05:37:40;;;;;;;6.07;5.60;;;;;;;11.54;100.00;95940.53;5075317;28;20198;-67
2021/05/12 05:40:06;;;;;;;6.20;5.40;;;;;;;12.03;99.08;95948.31;5075555;28;20553;-65
2021/05/12 05:42:31;;;;;;;6.57;5.87;;;;;;;11.22;100.00;95943.72;5075535;28;20167;-65
2021/05/12 05:44:56;;;;;;;5.83;5.20;;;;;;;11.18;100.00;95947.88;5075660;28;20751;-65
2021/05/12 05:47:22;;;;;;;5.50;5.00;;;;;;;11.47;100.00;95945.16;5059291;28;20213;-65
2021/05/12 05:49:47;;;;;;;5.57;5.13;;;;;;;11.56;100.00;95946.34;5074755;28;20642;-66
2021/05/12 05:52:13;;;;;;;5.13;4.73;;;;;;;11.74;98.83;95944.25;5075549;28;20280;-65
2021/05/12 05:54:38;;;;;;;4.73;4.17;;;;;;;11.66;99.03;95939.41;5075409;28;20214;-65
2021/05/12 05:57:14;;;;;;;5.50;4.67;;;;;;;11.69;100.00;95941.53;5075119;28;20175;-69
2021/05/12 05:59:39;;;;;;;5.60;4.40;;;;;;;11.65;98.82;95948.31;5075186;28;20217;-67
2021/05/12 06:02:06;;;;;;;7.83;4.93;;;;;;;11.49;98.74;95946.50;5057714;28;20911;-67
2021/05/12 06:04:31;;;;;;;8.87;4.17;;;;;;;11.32;100.00;95957.03;5062935;28;20629;-65
2021/05/12 06:06:57;;;;;;;4.53;3.70;;;;;;;11.18;100.00;95963.66;5058858;28;20420;-65
2021/05/12 06:09:23;;;;;;;4.80;4.30;;;;;;;11.23;100.00;95957.69;5054904;28;20648;-65
2021/05/12 06:11:49;;;;;;;8.50;4.83;;;;;;;11.44;99.79;95962.22;5055090;28;20259;-65
2021/05/12 06:14:14;;;;;;;4.27;3.87;;;;;;;11.34;99.67;95959.44;5062058;28;20452;-65
2021/05/12 06:16:40;;;;;;;6.37;4.70;;;;;;;11.48;100.00;95959.88;5070945;28;20665;-66
2021/05/12 06:19:05;;;;;;;5.33;4.07;;;;;;;11.73;97.53;95960.28;5054468;28;20202;-67
2021/05/12 06:21:31;;;;;;;6.73;4.60;;;;;;;11.63;99.17;95955.63;5054898;28;20183;-65
2021/05/12 06:23:56;;;;;;;7.67;3.97;;;;;;;11.48;100.00;95957.25;5054911;28;20253;-65
2021/05/12 06:26:22;;;;;;;4.83;4.43;;;;;;;11.36;98.94;95962.59;5054872;28;20633;-65
2021/05/12 06:28:49;;;;;;;4.77;3.90;;;;;;;11.60;98.58;95961.38;5054427;28;20202;-67
2021/05/12 06:31:15;;;;;;;4.83;3.77;;;;;;;11.34;98.64;95962.06;5056872;28;20429;-66
2021/05/12 06:33:44;;;;;;;5.37;4.00;;;;;;;11.77;97.65;95961.41;5074343;28;20817;-67
2021/05/12 06:36:09;;;;;;;5.07;4.57;;;;;;;11.76;97.01;95962.44;5074857;28;20499;-65
2021/05/12 06:38:35;;;;;;;4.00;3.70;;;;;;;11.47;99.03;95956.47;5074006;28;20849;-65
2021/05/12 06:41:01;;;;;;;4.13;3.60;;;;;;;11.70;98.03;95955.50;5074554;28;20496;-67
2021/05/12 06:43:27;;;;;;;8.93;4.10;;;;;;;11.87;96.84;95967.59;5072371;28;20253;-66
2021/05/12 06:45:53;;;;;;;4.43;3.53;;;;;;;11.72;96.29;95967.38;5072256;28;20178;-67
2021/05/12 06:48:18;;;;;;;4.43;4.03;;;;;;;11.75;96.71;95964.28;5060663;28;20432;-65
2021/05/12 06:50:45;;;;;;;4.53;3.50;;;;;;;11.87;96.37;95972.84;5073846;28;20567;-65
2021/05/12 06:53:10;;;;;;;4.20;3.10;;;;;;;11.63;97.35;95963.53;5074252;28;20209;-67
2021/05/12 06:55:36;;;;;;;7.10;3.73;;;;;;;11.71;97.62;95965.00;5074192;28;20413;-65
2021/05/12 06:58:02;;;;;;;4.57;3.93;;;;;;;11.67;96.67;95959.41;5071888;28;20640;-66
2021/05/12 07:00:28;;;;;;;4.90;4.30;;;;;;;11.72;97.10;95963.97;5073455;28;20199;-65
2021/05/12 07:02:53;;;;;;;4.40;4.00;;;;;;;11.64;96.73;95959.06;5053370;28;20447;-67
2021/05/12 07:05:21;;;;;;;3.40;3.10;;;;;;;11.91;96.84;95965.25;5054045;28;20229;-67
2021/05/12 07:07:46;;;;;;;5.17;4.20;;;;;;;11.70;95.91;95964.22;5053574;28;20178;-67
2021/05/12 07:10:13;;;;;;;5.97;4.10;;;;;;;12.00;95.87;95966.44;5058546;28;20803;-67
2021/05/12 07:12:39;;;;;;;4.33;3.60;;;;;;;11.97;95.30;95975.63;5073594;28;20644;-67
2021/05/12 07:15:06;;;;;;;4.43;3.60;;;;;;;11.97;95.29;95975.63;5073428;28;20440;-67
2021/05/12 07:17:32;;;;;;;4.80;3.60;;;;;;;11.93;95.82;95977.16;5065858;28;20173;-65
2021/05/12 07:19:57;;;;;;;4.10;3.70;;;;;;;12.13;95.05;95979.25;5063481;28;20954;-66
2021/05/12 07:22:23;;;;;;;4.90;3.93;;;;;;;12.16;96.36;95976.13;5067012;28;20528;-65
2021/05/12 07:24:50;;;;;;;4.53;4.10;;;;;;;11.88;96.00;95977.09;5071643;28;20232;-65
2021/05/12 07:27:18;;;;;;;4.00;3.60;;;;;;;12.16;95.04;95976.94;5073137;28;20441;-66
2021/05/12 07:29:44;;;;;;;6.13;3.47;;;;;;;12.09;95.73;95976.31;5073547;28;20456;-66
2021/05/12 07:32:09;;;;;;;3.83;3.50;;;;;;;12.28;94.69;95979.44;5073289;28;20488;-65
2021/05/12 07:34:35;;;;;;;6.83;5.00;;;;;;;12.37;94.01;95973.47;5069940;28;20217;-66
2021/05/12 07:37:01;;;;;;;8.87;3.17;;;;;;;12.52;93.44;95964.19;5053208;28;20633;-66
2021/05/12 07:39:29;;;;;;;5.53;3.80;;;;;;;12.58;93.75;95961.34;5067384;28;20523;-65
2021/05/12 07:42:02;;;;;;;6.27;3.97;;;;;;;12.78;93.16;95963.38;5073204;28;20170;-65
2021/05/12 07:44:27;;;;;;;6.50;4.23;;;;;;;12.49;93.83;95959.38;5057088;28;20417;-65
2021/05/12 07:46:52;;;;;;;6.70;4.30;;;;;;;12.37;95.66;95951.63;5052877;28;20412;-65
2021/05/12 07:49:18;;;;;;;5.43;3.63;;;;;;;12.30;95.72;95953.66;5061854;28;20552;-65
2021/05/12 07:51:43;;;;;;;5.33;4.03;;;;;;;12.27;96.19;95949.66;5072982;28;20178;-65
2021/05/12 07:54:09;;;;;;;9.77;4.80;;;;;;;12.54;95.04;95954.19;5072808;28;20182;-66
2021/05/12 07:56:34;;;;;;;5.53;4.27;;;;;;;12.08;96.29;95944.97;5073219;28;20198;-66
2021/05/12 07:58:59;;;;;;;6.63;4.13;;;;;;;12.32;97.01;95949.72;5058262;28;20669;-65
2021/05/12 08:01:29;;;;;;;4.20;3.80;;;;;;;12.04;97.31;95949.13;5052946;28;20179;-65
2021/05/12 08:03:55;;;;;;;3.70;3.40;;;;;;;12.12;97.37;95948.69;5053063;28;20160;-65
2021/05/12 08:06:20;;;;;;;4.60;4.10;;;;;;;12.08;97.93;95948.38;5059969;28;20832;-65
2021/05/12 08:08:46;;;;;;;6.43;4.03;;;;;;;12.25;96.51;95948.31;5072416;28;20199;-64
2021/05/12 08:11:11;;;;;;;4.87;4.40;;;;;;;12.37;96.66;95949.78;5062486;28;20171;-64
2021/05/12 08:13:37;;;;;;;5.30;3.30;;;;;;;12.12;96.40;95952.13;5055094;28;20223;-65
2021/05/12 08:16:02;;;;;;;5.10;3.67;;;;;;;12.09;97.10;95949.19;5056787;28;20582;-66
2021/05/12 08:18:28;;;;;;;5.20;3.80;;;;;;;11.93;97.90;95950.84;5056463;28;20167;-65
2021/05/12 08:20:55;;;;;;;5.73;3.90;;;;;;;11.89;98.80;95951.53;5057038;28;20571;-66
2021/05/12 08:23:22;;;;;;;5.27;3.97;;;;;;;11.81;98.94;95952.75;5056950;28;20601;-66
2021/05/12 08:25:47;;;;;;;5.80;3.50;;;;;;;11.85;99.73;95950.47;5056627;28;20409;-65
2021/05/12 08:28:13;;;;;;;5.87;3.63;;;;;;;12.03;99.59;95948.31;5062743;28;20429;-66
2021/05/12 08:30:44;;;;;;;4.80;3.43;;;;;;;12.18;98.39;95950.34;5061766;28;20198;-65
2021/05/12 08:33:10;;;;;;;3.40;3.10;;;;;;;12.10;98.05;95954.19;5076838;28;20539;-66
2021/05/12 08:35:38;;;;;;;3.60;3.30;;;;;;;12.01;97.65;95950.38;5062287;28;20635;-66
2021/05/12 08:38:04;;;;;;;4.27;3.37;;;;;;;11.83;97.84;95947.28;5056398;28;20183;-66
2021/05/12 08:40:31;;;;;;;4.23;3.50;;;;;;;11.86;98.75;95949.41;5057584;28;20438;-66
2021/05/12 08:42:57;;;;;;;3.33;3.03;;;;;;;11.88;97.65;95948.13;5056545;28;20167;-65
2021/05/12 08:45:23;;;;;;;5.60;3.20;;;;;;;11.79;98.51;95957.50;5060981;28;20465;-66
2021/05/12 08:47:54;;;;;;;3.40;3.10;;;;;;;11.84;98.35;95959.38;5075054;28;20429;-65
2021/05/12 08:50:20;;;;;;;3.77;3.43;;;;;;;11.64;99.14;95959.88;5067330;28;20460;-66
2021/05/12 08:52:46;;;;;;;3.10;2.90;;;;;;;11.77;97.88;95953.50;5069432;28;20452;-59
2021/05/12 08:55:12;;;;;;;5.13;3.53;;;;;;;11.83;98.31;95950.69;5076548;28;20159;-59
2021/05/12 08:57:37;;;;;;;3.67;2.83;;;;;;;11.94;97.55;95947.16;5070920;28;20437;-60
2021/05/12 09:00:06;;;;;;;4.27;2.97;;;;;;;11.89;97.54;95944.44;5056725;28;20195;-59
2021/05/12 09:02:31;;;;;;;3.43;3.10;;;;;;;11.93;97.46;95944.75;5056286;28;20538;-68
2021/05/12 09:04:57;;;;;;;3.53;3.00;;;;;;;11.56;97.61;95949.75;5055090;28;20414;-67
2021/05/12 09:07:22;;;;;;;5.27;3.43;;;;;;;11.55;97.44;95950.00;5055780;28;20167;-66
2021/05/12 09:09:48;;;;;;;3.47;3.17;;;;;;;11.63;96.65;95947.75;5056162;28;20217;-63
2021/05/12 09:12:14;;;;;;;3.00;2.80;;;;;;;11.69;96.97;95948.63;5058422;28;20195;-64
2021/05/12 09:14:40;;;;;;;3.97;3.57;;;;;;;11.53;97.77;95941.53;5052027;28;20416;-64
2021/05/12 09:17:06;;;;;;;3.60;3.30;;;;;;;11.62;97.17;95943.53;5052047;28;20790;-65
2021/05/12 09:19:32;;;;;;;6.70;3.30;;;;;;;11.87;96.50;95943.91;5052501;28;20215;-63
2021/05/12 09:22:00;;;;;;;3.70;3.40;;;;;;;11.66;96.79;95947.31;5052480;28;20168;-64
2021/05/12 09:24:36;;;;;;;4.33;3.10;;;;;;;11.98;96.26;95945.63;5051695;28;20421;-65
2021/05/12 09:27:04;;;;;;;3.27;3.00;;;;;;;12.03;95.44;95958.06;5051733;28;20421;-64
2021/05/12 09:29:38;;;;;;;3.27;2.87;;;;;;;12.15;95.00;95951.63;5051940;28;20810;-66
2021/05/12 09:32:06;;;;;;;3.70;3.00;;;;;;;12.02;95.79;95953.81;5052259;28;20445;-64
2021/05/12 09:34:50;;;;;;;5.07;3.77;;;;;;;12.38;93.99;95950.56;5052225;28;20769;-64
2021/05/12 09:37:32;;;;;;;4.20;3.00;;;;;;;12.48;93.34;95950.69;5070104;28;20424;-65
2021/05/12 09:40:00;;;;;;;3.97;3.50;;;;;;;12.34;94.04;95958.19;5072057;28;20464;-65
2021/05/12 09:42:26;;;;;;;3.20;2.90;;;;;;;12.28;95.23;95959.16;5071412;28;20432;-63
2021/05/12 09:45:17;;;;;;;5.50;3.60;;;;;;;12.25;94.05;95953.56;5057300;28;20436;-65
2021/05/12 09:47:45;;;;;;;4.80;3.40;;;;;;;12.40;93.83;95951.13;5051473;28;20410;-65
2021/05/12 09:50:17;;;;;;;3.93;3.17;;;;;;;12.26;94.95;95953.34;5049579;28;21027;-66
2021/05/12 09:52:43;;;;;;;3.70;3.30;;;;;;;12.28;95.26;95948.63;5051494;28;20458;-65
2021/05/12 09:55:11;;;;;;;4.47;3.73;;;;;;;12.37;94.19;95946.34;5051577;28;20479;-66
2021/05/12 09:57:56;;;;;;;5.20;3.30;;;;;;;12.23;95.88;95950.38;5057133;28;20417;-66
2021/05/12 10:00:26;;;;;;;5.20;3.37;;;;;;;12.52;94.14;95943.09;5062025;28;20445;-64
2021/05/12 10:02:52;;;;;;;3.40;2.80;;;;;;;12.66;92.76;95944.28;5070980;28;20413;-63
2021/05/12 10:05:17;;;;;;;5.70;3.07;;;;;;;12.55;93.52;95942.59;5071393;28;20918;-66
2021/05/12 10:07:50;;;;;;;4.07;3.20;;;;;;;12.63;92.18;95942.94;5070933;28;20170;-64
2021/05/12 10:10:34;;;;;;;3.93;3.10;;;;;;;12.64;91.29;95941.09;5071347;28;20201;-63
2021/05/12 10:12:59;;;;;;;4.67;3.03;;;;;;;12.69;91.84;95943.78;5068300;28;20456;-60
2021/05/12 10:15:24;;;;;;;8.00;3.30;;;;;;;12.60;91.84;95934.72;5059966;28;20430;-63
2021/05/12 10:17:50;;;;;;;5.63;3.80;;;;;;;12.56;91.59;95939.69;5051068;28;20548;-60
2021/05/12 10:20:15;;;;;;;4.43;3.20;;;;;;;12.39;93.05;95933.75;5051019;28;20199;-60
2021/05/12 10:22:41;;;;;;;5.70;3.13;;;;;;;12.84;92.21;95936.84;5067710;28;20688;-62
2021/05/12 10:25:08;;;;;;;4.40;3.20;;;;;;;13.06;91.13;95942.06;5063183;28;20244;-60
2021/05/12 10:27:33;;;;;;;3.57;3.20;;;;;;;13.34;90.13;95931.19;5053935;28;20996;-63
2021/05/12 10:30:03;;;;;;;5.67;2.87;;;;;;;13.36;88.75;95937.81;5067770;28;20441;-60
2021/05/12 10:32:35;;;;;;;3.97;3.10;;;;;;;13.54;87.81;95935.81;5050814;28;20191;-59
2021/05/12 10:35:09;;;;;;;3.37;3.07;;;;;;;13.70;86.09;95940.94;5061803;28;20986;-60
2021/05/12 10:37:46;;;;;;;5.97;3.10;;;;;;;13.76;87.31;95933.84;5069749;28;20959;-64
2021/05/12 10:40:21;;;;;;;3.77;2.57;;;;;;;13.90;85.32;95927.84;5070626;28;20435;-63
2021/05/12 10:42:55;;;;;;;4.20;2.50;;;;;;;13.79;85.50;95939.41;5063291;28;20444;-62
2021/05/12 10:45:58;;;;;;;4.20;3.20;;;;;;;13.99;87.06;95936.88;5053701;28;20513;-63
2021/05/12 10:48:37;;;;;;;4.70;2.87;;;;;;;14.05;86.04;95938.50;5068332;28;20427;-60
2021/05/12 10:51:10;;;;;;;3.87;2.77;;;;;;;13.94;86.32;95931.56;5069719;28;20485;-59
2021/05/12 10:53:46;;;;;;;4.77;3.10;;;;;;;13.90;82.53;95933.13;5068519;28;20463;-60
2021/05/12 10:56:14;;;;;;;2.57;2.23;;;;;;;14.02;84.03;95933.69;5068655;28;20890;-61
2021/05/12 10:58:45;;;;;;;4.03;2.97;;;;;;;14.13;81.83;95926.63;5057161;28;20433;-61
2021/05/12 11:01:11;;;;;;;4.30;2.57;;;;;;;13.63;82.72;95926.38;5049857;28;20425;-63
2021/05/12 11:03:49;;;;;;;6.27;3.13;;;;;;;13.82;82.50;95916.97;5050167;28;20496;-63
2021/05/12 11:06:22;;;;;;;4.53;2.47;;;;;;;13.80;82.60;95922.53;5055597;28;20599;-61
2021/05/12 11:09:08;;;;;;;3.40;2.60;;;;;;;13.93;81.83;95923.91;5069744;28;20431;-64
2021/05/12 11:11:49;;;;;;;2.93;2.57;;;;;;;14.19;80.86;95915.81;5069728;28;20875;-65
2021/05/12 11:14:21;;;;;;;2.63;2.43;;;;;;;13.97;79.92;95917.03;5073720;28;20412;-63
2021/05/12 11:17:06;;;;;;;3.60;2.53;;;;;;;13.81;80.41;95915.38;5060342;28;20453;-62
2021/05/12 11:19:40;;;;;;;5.37;2.57;;;;;;;13.87;81.43;95909.88;5053718;28;20920;-63
2021/05/12 11:22:46;;;;;;;3.53;2.43;;;;;;;13.99;80.75;95907.81;5063177;28;20414;-63
2021/05/12 11:33:25;;;;;;;2.50;2.03;;;;;;;14.65;76.35;95908.03;5053438;28;20448;-66
2021/05/12 11:35:58;;;;;;;2.80;2.60;;;;;;;14.83;76.69;95905.69;5059146;28;20539;-63
2021/05/12 11:38:24;;;;;;;3.07;2.67;;;;;;;14.63;75.19;95897.72;5073085;28;20401;-63
2021/05/12 11:40:58;;;;;;;4.93;2.50;;;;;;;14.79;75.75;95899.34;5073180;28;20421;-66